Time;durP1;ratioP1;P1;durP2;ratioP2;P2;SDS_P1;SDS_P2;PMS_P1;PMS_P2;Temp;Humidity;BMP_temperature;BMP_pressure;BME280_temperature;BME280_humidity;BME280_pressure;Samples;Min_cycle;Max_cycle;Signal;HPM_P1;HPM_P2
2022/08/30 00:01:01;;;;;;;22.90;19.17;;;;;;;;;;5052479;28;20026;-73
2022/08/30 00:01:57;;;;;;;22.52;19.60;;;;;;;;;;5076957;28;20039;-73
2022/08/30 00:04:23;;;;;;;24.52;18.85;;;;;;;;;;5064163;28;20035;-73
2022/08/30 00:06:48;;;;;;;25.45;20.15;;;;;;;;;;5057024;28;20193;-73
2022/08/30 00:09:17;;;;;;;28.90;21.08;;;;;;;;;;5073953;28;20123;-73
2022/08/30 00:11:42;;;;;;;27.20;21.48;;;;;;;;;;5052503;28;20237;-73
2022/08/30 00:14:07;;;;;;;28.08;22.65;;;;;;;;;;5046352;28;20033;-73
2022/08/30 00:16:33;;;;;;;32.92;24.42;;;;;;;;;;5041622;28;20101;-73
2022/08/30 00:18:59;;;;;;;29.60;25.52;;;;;;;;;;5052211;28;20566;-73
2022/08/30 00:21:25;;;;;;;36.65;25.73;;;;;;;;;;5035648;28;20036;-73
2022/08/30 00:23:51;;;;;;;31.50;25.10;;;;;;;;;;5068675;28;20464;-73
2022/08/30 00:26:17;;;;;;;32.95;23.95;;;;;;;;;;5068108;28;20044;-74
2022/08/30 00:28:42;;;;;;;34.05;25.77;;;;;;;;;;5063831;28;20445;-73
2022/08/30 00:31:11;;;;;;;35.53;25.27;;;;;;;;;;5042783;28;20659;-73
2022/08/30 00:33:36;;;;;;;38.65;27.67;;;;;;;;;;5072038;28;20036;-73
2022/08/30 00:36:02;;;;;;;34.70;25.63;;;;;;;;;;5070841;28;20106;-73
2022/08/30 00:38:27;;;;;;;43.88;27.50;;;;;;;;;;5054195;28;20027;-73
2022/08/30 00:40:52;;;;;;;36.17;27.17;;;;;;;;;;5066575;28;20052;-73
2022/08/30 00:43:24;;;;;;;40.28;26.90;;;;;;;;;;5033319;28;20025;-73
2022/08/30 00:45:49;;;;;;;35.17;27.35;;;;;;;;;;5041452;28;20575;-73
2022/08/30 00:48:15;;;;;;;35.50;27.40;;;;;;;;;;5040027;28;20024;-73
2022/08/30 00:50:52;;;;;;;37.08;27.42;;;;;;;;;;5042329;28;20043;-73
2022/08/30 00:53:24;;;;;;;35.85;27.58;;;;;;;;;;5050637;28;20046;-74
2022/08/30 00:55:49;;;;;;;37.08;27.38;;;;;;;;;;5045231;28;20090;-73
2022/08/30 00:58:20;;;;;;;37.95;29.52;;;;;;;;;;5056781;28;20047;-73
2022/08/30 01:00:49;;;;;;;39.67;27.92;;;;;;;;;;5055554;28;20024;-73
2022/08/30 01:03:15;;;;;;;41.45;28.27;;;;;;;;;;5055934;28;20546;-73
2022/08/30 01:05:40;;;;;;;41.90;28.80;;;;;;;;;;5050786;28;20047;-73
2022/08/30 01:08:05;;;;;;;41.40;27.85;;;;;;;;;;5051827;28;20028;-73
2022/08/30 01:10:32;;;;;;;40.05;29.08;;;;;;;;;;5057813;28;20507;-73
2022/08/30 01:12:58;;;;;;;42.00;29.60;;;;;;;;;;5042868;28;20055;-73
2022/08/30 01:15:23;;;;;;;40.80;29.15;;;;;;;;;;5058064;28;20065;-73
2022/08/30 01:17:48;;;;;;;43.65;30.27;;;;;;;;;;5053370;28;20111;-73
2022/08/30 01:20:19;;;;;;;39.05;28.17;;;;;;;;;;5056875;28;20387;-73
2022/08/30 01:22:47;;;;;;;39.03;27.23;;;;;;;;;;5069075;28;20060;-74
2022/08/30 01:25:13;;;;;;;34.10;26.75;;;;;;;;;;5071103;28;20045;-74
2022/08/30 01:27:41;;;;;;;47.60;30.70;;;;;;;;;;5058712;28;20049;-74
2022/08/30 01:30:07;;;;;;;43.47;28.98;;;;;;;;;;5040190;28;20108;-74
2022/08/30 01:32:38;;;;;;;38.10;28.30;;;;;;;;;;5051404;28;20053;-74
2022/08/30 01:35:04;;;;;;;40.05;29.08;;;;;;;;;;5050193;28;20435;-74
2022/08/30 01:37:30;;;;;;;40.22;27.83;;;;;;;;;;5044083;28;20040;-74
2022/08/30 01:39:55;;;;;;;36.00;28.05;;;;;;;;;;5041878;28;20105;-73
2022/08/30 01:42:21;;;;;;;44.25;29.67;;;;;;;;;;5042513;28;20418;-73
2022/08/30 01:44:47;;;;;;;43.17;29.25;;;;;;;;;;5054588;28;20157;-74
2022/08/30 01:47:13;;;;;;;38.17;27.27;;;;;;;;;;5039036;28;20046;-73
2022/08/30 01:49:39;;;;;;;40.40;27.55;;;;;;;;;;5051613;28;20427;-73
2022/08/30 01:52:05;;;;;;;36.47;26.95;;;;;;;;;;5055361;28;20025;-73
2022/08/30 01:54:31;;;;;;;41.10;27.85;;;;;;;;;;5030320;28;20032;-73
2022/08/30 01:56:56;;;;;;;39.83;27.10;;;;;;;;;;5057015;28;20452;-73
2022/08/30 01:59:21;;;;;;;39.35;26.45;;;;;;;;;;5070127;28;20435;-74
2022/08/30 02:01:47;;;;;;;44.25;27.95;;;;;;;;;;5070403;28;20527;-73
2022/08/30 02:04:13;;;;;;;39.95;27.10;;;;;;;;;;5047823;28;20111;-73
2022/08/30 02:06:43;;;;;;;33.83;25.45;;;;;;;;;;5062136;28;20115;-74
2022/08/30 02:09:08;;;;;;;43.88;29.80;;;;;;;;;;5042324;28;20032;-74
2022/08/30 02:11:34;;;;;;;44.10;29.83;;;;;;;;;;5068632;28;20028;-74
2022/08/30 02:13:59;;;;;;;44.25;27.88;;;;;;;;;;5060344;28;20169;-74
2022/08/30 02:16:24;;;;;;;39.33;26.63;;;;;;;;;;5043536;28;20033;-73
2022/08/30 02:18:51;;;;;;;44.83;27.92;;;;;;;;;;5032925;28;20040;-74
2022/08/30 02:21:16;;;;;;;41.38;27.58;;;;;;;;;;5047089;28;20114;-73
2022/08/30 02:23:42;;;;;;;38.92;26.15;;;;;;;;;;5031773;28;20387;-73
2022/08/30 02:26:08;;;;;;;42.50;26.50;;;;;;;;;;5041898;28;20040;-74
2022/08/30 02:28:33;;;;;;;42.53;28.40;;;;;;;;;;5035035;28;20036;-74
2022/08/30 02:30:59;;;;;;;45.40;29.48;;;;;;;;;;5064864;28;20553;-74
2022/08/30 02:33:24;;;;;;;40.85;28.88;;;;;;;;;;5063904;28;20058;-74
2022/08/30 02:35:49;;;;;;;42.45;28.80;;;;;;;;;;5069371;28;20154;-74
2022/08/30 02:38:15;;;;;;;47.65;31.15;;;;;;;;;;5064071;28;20068;-74
2022/08/30 02:40:40;;;;;;;48.35;29.83;;;;;;;;;;5073164;28;20036;-74
2022/08/30 02:43:06;;;;;;;47.40;31.00;;;;;;;;;;5044836;28;20032;-74
2022/08/30 02:45:31;;;;;;;53.97;31.90;;;;;;;;;;5061898;28;20497;-74
2022/08/30 02:47:56;;;;;;;50.30;33.25;;;;;;;;;;5067243;28;20459;-74
2022/08/30 02:50:22;;;;;;;48.03;30.88;;;;;;;;;;5075383;28;20120;-74
2022/08/30 02:52:50;;;;;;;54.38;32.63;;;;;;;;;;5040965;28;20318;-74
2022/08/30 02:55:16;;;;;;;41.78;29.13;;;;;;;;;;5067983;28;20032;-74
2022/08/30 02:57:43;;;;;;;51.75;33.40;;;;;;;;;;5056839;28;20471;-74
2022/08/30 03:00:10;;;;;;;51.35;34.10;;;;;;;;;;5062226;28;20060;-74
2022/08/30 03:02:35;;;;;;;48.42;31.83;;;;;;;;;;5058101;28;20123;-74
2022/08/30 03:05:00;;;;;;;61.50;35.42;;;;;;;;;;5062833;28;20139;-74
2022/08/30 03:07:26;;;;;;;55.13;33.97;;;;;;;;;;5060065;28;20036;-74
2022/08/30 03:09:51;;;;;;;58.50;36.28;;;;;;;;;;5044639;28;20036;-74
2022/08/30 03:12:17;;;;;;;59.88;37.25;;;;;;;;;;5053981;28;20160;-74
2022/08/30 03:14:42;;;;;;;56.08;37.20;;;;;;;;;;5056519;28;20107;-74
2022/08/30 03:17:10;;;;;;;63.63;37.10;;;;;;;;;;5063111;28;20063;-74
2022/08/30 03:19:35;;;;;;;56.40;36.88;;;;;;;;;;5053794;28;20036;-74
2022/08/30 03:22:02;;;;;;;62.22;38.03;;;;;;;;;;5054351;28;20030;-74
2022/08/30 03:24:27;;;;;;;57.78;37.35;;;;;;;;;;5059235;28;20032;-74
2022/08/30 03:26:53;;;;;;;58.67;38.65;;;;;;;;;;5041653;28;20135;-74
2022/08/30 03:29:18;;;;;;;60.33;37.70;;;;;;;;;;5059420;28;20122;-74
2022/08/30 03:31:43;;;;;;;60.80;38.17;;;;;;;;;;5039686;28;20036;-74
2022/08/30 03:34:09;;;;;;;59.70;37.10;;;;;;;;;;5047528;28;20123;-74
2022/08/30 03:36:36;;;;;;;58.05;37.17;;;;;;;;;;5064163;28;20051;-74
2022/08/30 03:39:03;;;;;;;51.20;34.42;;;;;;;;;;5057166;28;20105;-74
2022/08/30 03:41:29;;;;;;;54.92;35.97;;;;;;;;;;5064499;28;20036;-74
2022/08/30 03:43:54;;;;;;;58.03;35.05;;;;;;;;;;5062559;28;20043;-74
2022/08/30 03:46:20;;;;;;;57.33;35.42;;;;;;;;;;5050981;28;20369;-74
2022/08/30 03:48:45;;;;;;;55.30;34.53;;;;;;;;;;5062773;28;20114;-75
2022/08/30 03:51:10;;;;;;;59.25;37.58;;;;;;;;;;5060699;28;20089;-74
2022/08/30 03:53:36;;;;;;;59.63;38.10;;;;;;;;;;5045146;28;20102;-74
2022/08/30 03:56:01;;;;;;;61.60;37.58;;;;;;;;;;5062050;28;21223;-74
2022/08/30 03:58:27;;;;;;;61.10;38.08;;;;;;;;;;5046920;28;20020;-74
2022/08/30 04:00:53;;;;;;;59.67;35.70;;;;;;;;;;5070172;28;20031;-74
2022/08/30 04:03:24;;;;;;;64.47;36.58;;;;;;;;;;5071322;28;20151;-74
2022/08/30 04:05:50;;;;;;;63.22;38.30;;;;;;;;;;5057183;28;20427;-74
2022/08/30 04:08:15;;;;;;;66.85;40.17;;;;;;;;;;5062098;28;20067;-74
2022/08/30 04:10:41;;;;;;;69.32;38.53;;;;;;;;;;5067705;28;20036;-74
2022/08/30 04:13:06;;;;;;;72.47;40.20;;;;;;;;;;5049184;28;20115;-75
2022/08/30 04:15:32;;;;;;;71.03;38.55;;;;;;;;;;5070287;28;20082;-75
2022/08/30 04:17:59;;;;;;;66.13;40.28;;;;;;;;;;5065601;28;20071;-74
2022/08/30 04:20:26;;;;;;;66.40;40.35;;;;;;;;;;5060976;28;20387;-74
2022/08/30 04:22:51;;;;;;;71.43;41.92;;;;;;;;;;5083081;28;20040;-74
2022/08/30 04:25:16;;;;;;;70.97;43.00;;;;;;;;;;5049689;28;20033;-74
2022/08/30 04:27:44;;;;;;;60.50;39.55;;;;;;;;;;5069955;28;20398;-74
2022/08/30 04:30:11;;;;;;;73.68;42.45;;;;;;;;;;5071065;28;20040;-74
2022/08/30 04:32:37;;;;;;;66.60;40.60;;;;;;;;;;5033255;28;20036;-74
2022/08/30 04:35:02;;;;;;;69.22;39.22;;;;;;;;;;5055110;28;20072;-74
2022/08/30 04:37:28;;;;;;;72.47;40.65;;;;;;;;;;5042986;28;20032;-74
2022/08/30 04:39:59;;;;;;;73.78;42.85;;;;;;;;;;5072006;28;20039;-74
2022/08/30 04:42:25;;;;;;;68.28;40.83;;;;;;;;;;5057275;28;20088;-74
2022/08/30 04:44:50;;;;;;;62.95;40.20;;;;;;;;;;5078890;28;20024;-74
2022/08/30 04:47:17;;;;;;;62.25;38.92;;;;;;;;;;5072860;28;20067;-74
2022/08/30 04:49:42;;;;;;;68.30;40.78;;;;;;;;;;5077636;28;20017;-74
2022/08/30 04:52:10;;;;;;;65.45;40.72;;;;;;;;;;5069694;28;20032;-75
2022/08/30 04:54:35;;;;;;;68.38;39.72;;;;;;;;;;5064665;28;20033;-75
2022/08/30 04:57:01;;;;;;;77.05;41.58;;;;;;;;;;5064494;28;20117;-74
2022/08/30 04:59:27;;;;;;;73.60;41.33;;;;;;;;;;5069364;28;20052;-75
2022/08/30 05:01:52;;;;;;;59.72;39.38;;;;;;;;;;5038070;28;20043;-75
2022/08/30 05:04:18;;;;;;;71.63;41.63;;;;;;;;;;5071145;28;20040;-75
2022/08/30 05:06:46;;;;;;;65.55;41.17;;;;;;;;;;5069486;28;20472;-75
2022/08/30 05:09:11;;;;;;;66.88;40.83;;;;;;;;;;5052872;28;20029;-75
2022/08/30 05:11:37;;;;;;;64.20;39.45;;;;;;;;;;5070360;28;20031;-75
2022/08/30 05:14:06;;;;;;;67.97;40.88;;;;;;;;;;5034846;28;20044;-75
2022/08/30 05:16:31;;;;;;;64.35;41.30;;;;;;;;;;5069280;28;20024;-75
2022/08/30 05:18:56;;;;;;;65.88;41.55;;;;;;;;;;5069018;28;20127;-75
2022/08/30 05:21:24;;;;;;;73.80;42.00;;;;;;;;;;5069268;28;20062;-75
2022/08/30 05:23:50;;;;;;;75.03;42.88;;;;;;;;;;5052497;28;20033;-75
2022/08/30 05:26:17;;;;;;;62.30;39.17;;;;;;;;;;5052233;28;20378;-75
2022/08/30 05:28:43;;;;;;;71.50;42.53;;;;;;;;;;5053709;28;20029;-75
2022/08/30 05:31:29;;;;;;;72.60;43.40;;;;;;;;;;5056606;28;20036;-75
2022/08/30 05:33:54;;;;;;;69.57;42.08;;;;;;;;;;5067584;28;20535;-75
2022/08/30 05:36:22;;;;;;;66.80;41.15;;;;;;;;;;5074626;28;20060;-75
2022/08/30 05:38:47;;;;;;;71.15;42.75;;;;;;;;;;5035740;28;20111;-75
2022/08/30 05:41:13;;;;;;;71.03;41.90;;;;;;;;;;5069976;28;20103;-75
2022/08/30 05:43:38;;;;;;;75.90;44.63;;;;;;;;;;5067497;28;20771;-75
2022/08/30 05:46:06;;;;;;;77.50;46.67;;;;;;;;;;5050037;28;20392;-75
2022/08/30 05:48:32;;;;;;;62.47;40.33;;;;;;;;;;5050685;28;20020;-75
2022/08/30 05:51:04;;;;;;;74.00;43.42;;;;;;;;;;5085136;28;20024;-75
2022/08/30 05:53:29;;;;;;;69.00;42.45;;;;;;;;;;5052049;28;20024;-75
2022/08/30 05:55:54;;;;;;;61.55;40.53;;;;;;;;;;5067663;28;20449;-75
2022/08/30 05:58:20;;;;;;;67.53;43.28;;;;;;;;;;5045136;28;20025;-75
2022/08/30 06:00:45;;;;;;;62.95;42.05;;;;;;;;;;5078941;28;20195;-75
2022/08/30 06:03:11;;;;;;;67.07;43.08;;;;;;;;;;5059562;28;20107;-75
2022/08/30 06:05:37;;;;;;;61.08;42.78;;;;;;;;;;5072865;28;20131;-75
2022/08/30 06:08:02;;;;;;;60.00;42.50;;;;;;;;;;5031787;28;20116;-75
2022/08/30 06:10:28;;;;;;;65.55;42.03;;;;;;;;;;5051329;28;20036;-75
2022/08/30 06:12:53;;;;;;;68.40;43.80;;;;;;;;;;5069115;28;20060;-75
2022/08/30 06:15:18;;;;;;;57.75;38.55;;;;;;;;;;5049400;28;20455;-75
2022/08/30 06:17:47;;;;;;;55.05;38.55;;;;;;;;;;5068470;28;20120;-76
2022/08/30 06:20:13;;;;;;;50.05;37.30;;;;;;;;;;5032014;28;20482;-76
2022/08/30 06:22:38;;;;;;;51.47;36.53;;;;;;;;;;5065249;28;20027;-76
2022/08/30 06:25:04;;;;;;;55.00;36.35;;;;;;;;;;5068691;28;20020;-76
2022/08/30 06:27:30;;;;;;;46.10;34.17;;;;;;;;;;5035232;28;20049;-73
2022/08/30 06:29:55;;;;;;;45.50;34.25;;;;;;;;;;5067845;28;20500;-77
2022/08/30 06:32:21;;;;;;;53.63;37.88;;;;;;;;;;5033019;28;20475;-75
2022/08/30 06:34:47;;;;;;;51.80;35.40;;;;;;;;;;5050493;28;20031;-76
2022/08/30 06:37:12;;;;;;;42.22;32.38;;;;;;;;;;5047738;28;20025;-76
2022/08/30 06:39:37;;;;;;;40.28;31.33;;;;;;;;;;5015667;28;20089;-76
2022/08/30 06:42:03;;;;;;;37.75;29.83;;;;;;;;;;5024907;28;20028;-76
2022/08/30 06:44:28;;;;;;;39.78;29.85;;;;;;;;;;5051319;28;20155;-76
2022/08/30 06:46:54;;;;;;;46.00;29.08;;;;;;;;;;5080931;28;20133;-77
2022/08/30 06:49:20;;;;;;;31.05;27.30;;;;;;;;;;5056036;28;20056;-76
2022/08/30 06:51:45;;;;;;;32.08;25.83;;;;;;;;;;5068748;28;20028;-76
2022/08/30 06:54:11;;;;;;;31.88;25.85;;;;;;;;;;5069135;28;20036;-77
2022/08/30 06:56:36;;;;;;;26.83;23.92;;;;;;;;;;5054899;28;20370;-76
2022/08/30 06:59:02;;;;;;;23.67;20.55;;;;;;;;;;5051543;28;20032;-76
2022/08/30 07:01:27;;;;;;;25.73;20.77;;;;;;;;;;5034634;28;20652;-76
2022/08/30 07:03:53;;;;;;;23.10;17.85;;;;;;;;;;5035505;28;20552;-78
2022/08/30 07:06:18;;;;;;;24.75;16.63;;;;;;;;;;5069954;28;20028;-77
2022/08/30 07:08:44;;;;;;;18.85;13.65;;;;;;;;;;5050733;28;20056;-77
2022/08/30 07:11:09;;;;;;;14.95;12.88;;;;;;;;;;5057770;28;20471;-77
2022/08/30 07:13:35;;;;;;;18.35;9.93;;;;;;;;;;5060054;28;20085;-77
2022/08/30 07:16:08;;;;;;;13.93;10.00;;;;;;;;;;5066041;28;20035;-77
2022/08/30 07:18:53;;;;;;;12.63;9.38;;;;;;;;;;5063114;28;20020;-77
2022/08/30 07:21:33;;;;;;;16.13;8.85;;;;;;;;;;5068044;28;20032;-77
2022/08/30 07:23:58;;;;;;;13.68;6.97;;;;;;;;;;5053740;28;20272;-78
2022/08/30 07:26:26;;;;;;;15.02;5.93;;;;;;;;;;5055225;28;20095;-78
2022/08/30 07:28:51;;;;;;;12.63;6.28;;;;;;;;;;5057935;28;20063;-78
2022/08/30 07:31:18;;;;;;;8.07;5.80;;;;;;;;;;5053712;28;20123;-77
2022/08/30 07:33:43;;;;;;;12.07;4.95;;;;;;;;;;5055896;28;20506;-77
2022/08/30 07:36:08;;;;;;;5.15;3.28;;;;;;;;;;5033515;28;20033;-76
2022/08/30 07:38:34;;;;;;;4.60;3.63;;;;;;;;;;5049954;28;20043;-76
2022/08/30 07:41:00;;;;;;;5.82;3.08;;;;;;;;;;5050526;28;20033;-77
2022/08/30 07:43:27;;;;;;;7.22;2.78;;;;;;;;;;5044085;28;20401;-77
2022/08/30 07:45:52;;;;;;;6.40;3.22;;;;;;;;;;5023283;28;20020;-77
2022/08/30 07:48:17;;;;;;;4.07;2.10;;;;;;;;;;5044145;28;20440;-77
2022/08/30 07:50:43;;;;;;;6.93;2.20;;;;;;;;;;5056094;28;20060;-77
2022/08/30 07:53:08;;;;;;;4.07;1.95;;;;;;;;;;5063412;28;20040;-77
2022/08/30 07:55:34;;;;;;;4.85;1.95;;;;;;;;;;5037233;28;20032;-76
2022/08/30 07:57:59;;;;;;;7.25;2.30;;;;;;;;;;5069561;28;20538;-77
2022/08/30 08:00:25;;;;;;;5.10;2.00;;;;;;;;;;5076550;28;20116;-76
2022/08/30 08:02:50;;;;;;;5.25;2.22;;;;;;;;;;5038974;28;20086;-76
2022/08/30 08:05:15;;;;;;;3.63;1.60;;;;;;;;;;5079353;28;20032;-77
2022/08/30 08:07:41;;;;;;;5.60;2.28;;;;;;;;;;5081708;28;20398;-77
2022/08/30 08:10:07;;;;;;;4.25;1.48;;;;;;;;;;5062926;28;20068;-77
2022/08/30 08:12:33;;;;;;;5.43;2.00;;;;;;;;;;5081097;28;20031;-77
2022/08/30 08:14:59;;;;;;;8.30;2.20;;;;;;;;;;5079200;28;20521;-77
2022/08/30 08:17:24;;;;;;;7.07;1.80;;;;;;;;;;5082813;28;20235;-77
2022/08/30 08:19:49;;;;;;;4.25;1.63;;;;;;;;;;5054334;28;20433;-77
2022/08/30 08:22:15;;;;;;;3.70;1.50;;;;;;;;;;5069767;28;20115;-77
2022/08/30 08:24:40;;;;;;;4.57;1.50;;;;;;;;;;5037187;28;20129;-77
2022/08/30 08:27:05;;;;;;;4.85;1.52;;;;;;;;;;5067489;28;20519;-77
2022/08/30 08:29:31;;;;;;;4.35;2.08;;;;;;;;;;5077433;28;20179;-77
2022/08/30 08:31:57;;;;;;;4.22;1.35;;;;;;;;;;5071633;28;20032;-77
2022/08/30 08:34:22;;;;;;;3.42;1.65;;;;;;;;;;5075723;28;20128;-77
2022/08/30 08:36:48;;;;;;;7.05;2.17;;;;;;;;;;5052712;28;20021;-77
2022/08/30 08:39:16;;;;;;;3.00;1.30;;;;;;;;;;5051397;28;20024;-77
2022/08/30 08:42:08;;;;;;;4.35;1.70;;;;;;;;;;5050765;28;20032;-77
2022/08/30 08:44:39;;;;;;;5.35;1.90;;;;;;;;;;5061684;28;20040;-78
2022/08/30 08:47:26;;;;;;;4.63;1.65;;;;;;;;;;5069180;28;20123;-75
2022/08/30 08:49:54;;;;;;;5.03;1.70;;;;;;;;;;5047661;28;20140;-75
2022/08/30 08:55:14;;;;;;;3.38;1.30;;;;;;;;;;5066450;28;20027;-76
2022/08/30 08:57:40;;;;;;;4.38;1.52;;;;;;;;;;5037837;28;20032;-75
2022/08/30 09:00:07;;;;;;;2.22;1.23;;;;;;;;;;5055203;28;20105;-78
2022/08/30 09:02:54;;;;;;;2.08;1.20;;;;;;;;;;5056565;28;20066;-78
2022/08/30 09:05:19;;;;;;;6.22;1.60;;;;;;;;;;5075801;28;20506;-78
2022/08/30 09:08:10;;;;;;;3.47;1.55;;;;;;;;;;5076509;28;20024;-75
2022/08/30 09:10:35;;;;;;;5.55;1.88;;;;;;;;;;5073707;28;20370;-74
2022/08/30 09:13:01;;;;;;;4.55;1.30;;;;;;;;;;5057977;28;20035;-74
2022/08/30 09:15:29;;;;;;;6.13;1.77;;;;;;;;;;5082001;28;20074;-73
2022/08/30 09:17:55;;;;;;;4.43;1.60;;;;;;;;;;5074150;28;20028;-72
2022/08/30 09:20:42;;;;;;;3.13;1.20;;;;;;;;;;5057563;28;20036;-73
2022/08/30 09:23:28;;;;;;;5.00;1.63;;;;;;;;;;5069855;28;20033;-73
2022/08/30 09:26:02;;;;;;;7.93;1.55;;;;;;;;;;5065804;28;20492;-73
2022/08/30 09:28:32;;;;;;;5.43;1.63;;;;;;;;;;5068386;28;20237;-73
2022/08/30 09:31:04;;;;;;;6.38;1.75;;;;;;;;;;5031044;28;20037;-73
2022/08/30 09:33:29;;;;;;;6.35;1.65;;;;;;;;;;5030574;28;20024;-73
2022/08/30 09:35:55;;;;;;;3.75;1.70;;;;;;;;;;5047280;28;20361;-73
2022/08/30 09:38:27;;;;;;;9.52;1.83;;;;;;;;;;5058487;28;20108;-72
2022/08/30 09:40:55;;;;;;;3.45;1.60;;;;;;;;;;5033885;28;20025;-72
2022/08/30 09:43:25;;;;;;;3.53;1.58;;;;;;;;;;5057240;28;20032;-71
2022/08/30 09:45:59;;;;;;;4.53;2.03;;;;;;;;;;5065691;28;20056;-71
2022/08/30 09:48:32;;;;;;;5.95;1.90;;;;;;;;;;5079506;28;20039;-72
2022/08/30 09:51:03;;;;;;;2.63;1.55;;;;;;;;;;5055784;28;20028;-72
2022/08/30 09:53:32;;;;;;;6.55;2.13;;;;;;;;;;5048197;28;20377;-72
2022/08/30 09:56:09;;;;;;;3.03;1.77;;;;;;;;;;5050958;28;20099;-72
2022/08/30 09:58:48;;;;;;;4.68;2.00;;;;;;;;;;5051076;28;20399;-72
2022/08/30 10:01:18;;;;;;;4.13;1.98;;;;;;;;;;5050963;28;20030;-72
2022/08/30 10:03:50;;;;;;;6.15;1.80;;;;;;;;;;5051186;28;20361;-72
2022/08/30 10:06:48;;;;;;;5.73;1.80;;;;;;;;;;5052242;28;20082;-72
2022/08/30 10:09:55;;;;;;;3.72;2.22;;;;;;;;;;5074276;28;20087;-72
2022/08/30 10:12:41;;;;;;;4.57;1.77;;;;;;;;;;5070515;28;20040;-72
2022/08/30 10:15:18;;;;;;;4.20;2.00;;;;;;;;;;5033511;28;20428;-72
2022/08/30 10:18:03;;;;;;;6.28;2.35;;;;;;;;;;5063740;28;20554;-72
2022/08/30 10:20:32;;;;;;;3.20;1.48;;;;;;;;;;5068329;28;20039;-72
2022/08/30 10:23:02;;;;;;;5.18;1.55;;;;;;;;;;5065869;28;20068;-72
2022/08/30 10:25:33;;;;;;;4.88;1.63;;;;;;;;;;5067548;28;20402;-72
2022/08/30 10:28:03;;;;;;;2.72;1.63;;;;;;;;;;5032859;28;20048;-72
2022/08/30 10:30:30;;;;;;;3.80;1.85;;;;;;;;;;5066785;28;20523;-72
2022/08/30 10:33:00;;;;;;;4.13;1.70;;;;;;;;;;5052651;28;20607;-72
2022/08/30 10:35:33;;;;;;;3.08;1.55;;;;;;;;;;5076234;28;20043;-72
2022/08/30 10:38:07;;;;;;;4.38;1.88;;;;;;;;;;5065292;28;20406;-72
2022/08/30 10:43:33;;;;;;;4.85;1.67;;;;;;;;;;5081829;28;20115;-72
2022/08/30 10:46:00;;;;;;;3.30;1.88;;;;;;;;;;5059058;28;20043;-72
2022/08/30 10:48:32;;;;;;;6.18;1.90;;;;;;;;;;5047680;28;20069;-71
2022/08/30 10:51:00;;;;;;;3.70;1.70;;;;;;;;;;5073590;28;20103;-73
2022/08/30 10:53:31;;;;;;;4.47;1.63;;;;;;;;;;5051511;28;20102;-72
2022/08/30 10:56:03;;;;;;;7.75;2.22;;;;;;;;;;5062207;28;20450;-72
2022/08/30 10:58:30;;;;;;;11.70;2.05;;;;;;;;;;5061600;28;20494;-71
2022/08/30 11:01:19;;;;;;;10.82;3.45;;;;;;;;;;5059704;28;20031;-72
2022/08/30 11:04:01;;;;;;;6.03;1.67;;;;;;;;;;5066864;28;20032;-72
2022/08/30 11:06:33;;;;;;;8.10;2.00;;;;;;;;;;5060956;28;20031;-74
2022/08/30 11:09:25;;;;;;;10.27;1.70;;;;;;;;;;5079720;28;20094;-75
2022/08/30 11:11:50;;;;;;;5.90;1.48;;;;;;;;;;5060691;28;20476;-75
2022/08/30 11:14:16;;;;;;;7.07;1.73;;;;;;;;;;5070129;28;20044;-75
2022/08/30 11:16:44;;;;;;;4.07;1.65;;;;;;;;;;5036943;28;20024;-74
2022/08/30 11:19:24;;;;;;;3.95;1.65;;;;;;;;;;5035945;28;20107;-75
2022/08/30 11:21:50;;;;;;;6.05;1.25;;;;;;;;;;5052706;28;20043;-74
2022/08/30 11:24:22;;;;;;;4.45;1.58;;;;;;;;;;5032950;28;20103;-74
2022/08/30 11:26:47;;;;;;;6.23;1.77;;;;;;;;;;5041443;28;20041;-74
2022/08/30 11:29:33;;;;;;;2.75;1.50;;;;;;;;;;5069343;28;20044;-73
2022/08/30 11:32:18;;;;;;;3.38;1.38;;;;;;;;;;5068652;28;20028;-73
2022/08/30 11:34:43;;;;;;;3.25;1.58;;;;;;;;;;5055649;28;20032;-73
2022/08/30 11:37:09;;;;;;;4.22;1.75;;;;;;;;;;5065988;28;20051;-72
2022/08/30 11:39:41;;;;;;;5.82;1.52;;;;;;;;;;5049136;28;20024;-72
2022/08/30 11:42:12;;;;;;;3.60;1.30;;;;;;;;;;5069754;28;20432;-72
2022/08/30 11:44:37;;;;;;;7.45;1.73;;;;;;;;;;5051951;28;20063;-72
2022/08/30 11:47:36;;;;;;;4.40;1.30;;;;;;;;;;5067831;28;20063;-72
2022/08/30 11:50:12;;;;;;;2.75;1.20;;;;;;;;;;5059979;28;20033;-75
2022/08/30 11:53:15;;;;;;;5.47;1.55;;;;;;;;;;5049728;28;20404;-76
2022/08/30 11:56:07;;;;;;;3.90;1.70;;;;;;;;;;5070509;28;20035;-75
2022/08/30 11:59:03;;;;;;;4.60;1.30;;;;;;;;;;5055437;28;20452;-75
2022/08/30 12:01:34;;;;;;;2.75;1.20;;;;;;;;;;5054619;28;20051;-75
2022/08/30 12:04:11;;;;;;;3.95;1.50;;;;;;;;;;5052456;28;20410;-75
2022/08/30 12:06:43;;;;;;;4.20;1.30;;;;;;;;;;5036420;28;20063;-75
2022/08/30 12:09:32;;;;;;;5.90;1.80;;;;;;;;;;5052578;28;20039;-76
2022/08/30 12:11:58;;;;;;;5.85;1.30;;;;;;;;;;5069991;28;20044;-76
2022/08/30 12:14:46;;;;;;;4.80;1.38;;;;;;;;;;5051447;28;20024;-77
2022/08/30 12:20:04;;;;;;;2.70;1.15;;;;;;;;;;5068527;28;20028;-76
2022/08/30 12:22:32;;;;;;;3.28;1.50;;;;;;;;;;5034596;28;20476;-76
2022/08/30 12:24:58;;;;;;;4.13;1.17;;;;;;;;;;5051508;28;20032;-76
2022/08/30 12:27:27;;;;;;;4.90;1.10;;;;;;;;;;5034623;28;20475;-76
2022/08/30 12:29:55;;;;;;;5.68;1.60;;;;;;;;;;5069726;28;20101;-76
2022/08/30 12:32:23;;;;;;;7.22;1.50;;;;;;;;;;5052077;28;20021;-76
2022/08/30 12:34:50;;;;;;;3.60;1.65;;;;;;;;;;5051069;28;20034;-76
2022/08/30 12:37:35;;;;;;;3.47;1.58;;;;;;;;;;5052014;28;20050;-76
2022/08/30 12:40:17;;;;;;;4.05;1.30;;;;;;;;;;5037239;28;20095;-76
2022/08/30 12:42:53;;;;;;;5.40;1.30;;;;;;;;;;5051558;28;20130;-76
2022/08/30 12:45:21;;;;;;;4.07;1.40;;;;;;;;;;5051616;28;20081;-76
2022/08/30 12:48:00;;;;;;;2.30;1.30;;;;;;;;;;5051767;28;20448;-76
2022/08/30 12:50:27;;;;;;;5.40;1.42;;;;;;;;;;5067430;28;20047;-76
2022/08/30 12:53:00;;;;;;;3.30;1.38;;;;;;;;;;5034632;28;20484;-76
2022/08/30 12:55:29;;;;;;;5.55;1.70;;;;;;;;;;5051306;28;20339;-75
2022/08/30 12:58:03;;;;;;;5.55;1.52;;;;;;;;;;5051214;28;20414;-75
2022/08/30 13:00:31;;;;;;;2.60;1.50;;;;;;;;;;5068054;28;20399;-76
2022/08/30 13:02:59;;;;;;;4.93;1.70;;;;;;;;;;5049518;28;20420;-77
2022/08/30 13:05:32;;;;;;;3.13;1.20;;;;;;;;;;5048810;28;20017;-73
2022/08/30 13:08:14;;;;;;;3.40;1.40;;;;;;;;;;5067381;28;20635;-73
2022/08/30 13:11:23;;;;;;;2.38;1.30;;;;;;;;;;5050516;28;20110;-73
2022/08/30 13:14:24;;;;;;;2.97;1.40;;;;;;;;;;5056392;28;20606;-73
2022/08/30 13:16:49;;;;;;;5.05;1.55;;;;;;;;;;5052484;28;20442;-73
2022/08/30 13:19:31;;;;;;;2.20;1.10;;;;;;;;;;5071568;28;20100;-74
2022/08/30 13:21:57;;;;;;;2.60;1.30;;;;;;;;;;5065722;28;20029;-74
2022/08/30 13:24:22;;;;;;;4.57;1.30;;;;;;;;;;5050334;28;20107;-73
2022/08/30 13:26:48;;;;;;;2.58;1.20;;;;;;;;;;5050057;28;20115;-74
2022/08/30 13:29:21;;;;;;;3.40;1.45;;;;;;;;;;5050818;28;20197;-73
2022/08/30 13:31:47;;;;;;;2.35;1.20;;;;;;;;;;5050708;28;20128;-73
2022/08/30 13:34:12;;;;;;;9.18;1.63;;;;;;;;;;5067694;28;20403;-74
2022/08/30 13:36:49;;;;;;;2.13;0.98;;;;;;;;;;5071605;28;20443;-74
2022/08/30 13:39:15;;;;;;;2.38;1.20;;;;;;;;;;5057736;28;20444;-74
2022/08/30 13:41:40;;;;;;;2.65;1.42;;;;;;;;;;5055774;28;20248;-74
2022/08/30 13:44:06;;;;;;;1.75;1.08;;;;;;;;;;5049962;28;20034;-74
2022/08/30 13:46:31;;;;;;;3.17;1.30;;;;;;;;;;5050333;28;20515;-74
2022/08/30 13:49:05;;;;;;;3.10;1.30;;;;;;;;;;5047890;28;20033;-74
2022/08/30 13:51:31;;;;;;;4.13;1.02;;;;;;;;;;5028722;28;20028;-74
2022/08/30 13:53:56;;;;;;;5.15;1.33;;;;;;;;;;5048244;28;20036;-74
2022/08/30 13:56:23;;;;;;;2.30;1.05;;;;;;;;;;5052749;28;20043;-74
2022/08/30 13:58:49;;;;;;;4.38;1.33;;;;;;;;;;5050285;28;20025;-74
2022/08/30 14:01:14;;;;;;;5.60;1.40;;;;;;;;;;5050567;28;20051;-74
2022/08/30 14:03:39;;;;;;;4.18;1.23;;;;;;;;;;5063864;28;20067;-75
2022/08/30 14:06:05;;;;;;;6.03;1.10;;;;;;;;;;5065930;28;20074;-76
2022/08/30 14:08:31;;;;;;;4.35;1.00;;;;;;;;;;5035149;28;20534;-75
2022/08/30 14:10:56;;;;;;;3.03;1.33;;;;;;;;;;5063089;28;20039;-75
2022/08/30 14:13:22;;;;;;;4.13;1.25;;;;;;;;;;5031868;28;20112;-74
2022/08/30 14:15:49;;;;;;;3.33;0.98;;;;;;;;;;5020774;28;20472;-75
2022/08/30 14:18:14;;;;;;;3.75;1.20;;;;;;;;;;5062015;28;20032;-76
2022/08/30 14:20:40;;;;;;;4.43;1.40;;;;;;;;;;5031519;28;20025;-75
2022/08/30 14:23:06;;;;;;;6.57;1.17;;;;;;;;;;5071450;28;20064;-75
2022/08/30 14:25:31;;;;;;;5.03;1.30;;;;;;;;;;5055586;28;20051;-75
2022/08/30 14:27:56;;;;;;;2.85;1.15;;;;;;;;;;5052118;28;20084;-75
2022/08/30 14:30:22;;;;;;;4.60;1.40;;;;;;;;;;5040928;28;20054;-75
2022/08/30 14:32:48;;;;;;;2.25;1.00;;;;;;;;;;5055439;28;20503;-76
2022/08/30 14:35:15;;;;;;;3.75;0.95;;;;;;;;;;5053429;28;20028;-75
2022/08/30 14:37:40;;;;;;;3.17;1.35;;;;;;;;;;5054918;28;20025;-76
2022/08/30 14:40:06;;;;;;;5.47;1.27;;;;;;;;;;5037211;28;20107;-75
2022/08/30 14:42:31;;;;;;;3.30;1.15;;;;;;;;;;5050303;28;20038;-75
2022/08/30 14:44:57;;;;;;;2.75;1.02;;;;;;;;;;5052682;28;20483;-74